createdAt,value
2022-08-16T00:00:03.643Z,100526.25
2022-08-16T00:03:13.724Z,100528.94
2022-08-16T00:06:20.656Z,100531.38
2022-08-16T00:09:27.314Z,100521.59
2022-08-16T00:12:34.971Z,100532.25
2022-08-16T00:15:51.511Z,100530.53
2022-08-16T00:19:00.110Z,100538.13
2022-08-16T00:22:06.805Z,100537.44
2022-08-16T00:25:21.147Z,100536.03
2022-08-16T00:28:48.047Z,100534.56
2022-08-16T00:32:05.512Z,100542.75
2022-08-16T00:35:16.106Z,100550.56
2022-08-16T00:38:41.414Z,100554.88
2022-08-16T00:41:50.294Z,100557.88
2022-08-16T00:45:06.298Z,100552.59
2022-08-16T00:48:30.651Z,100562.72
2022-08-16T00:51:38.584Z,100553.56
2022-08-16T00:54:44.346Z,100558.75
2022-08-16T00:58:00.227Z,100566.56
2022-08-16T01:01:10.644Z,100554.22
2022-08-16T01:04:30.124Z,100550.91
2022-08-16T01:07:50.630Z,100556.66
2022-08-16T01:10:59.926Z,100556.66
2022-08-16T01:14:10.190Z,100555.50
2022-08-16T01:17:20.007Z,100557.66
2022-08-16T01:20:33.913Z,100554.41
2022-08-16T01:23:58.438Z,100555.41
2022-08-16T01:27:11.365Z,100551.25
2022-08-16T01:30:26.470Z,100565.91
2022-08-16T01:33:35.809Z,100554.94
2022-08-16T01:36:42.110Z,100556.56
2022-08-16T01:39:49.832Z,100562.56
2022-08-16T01:42:56.444Z,100559.72
2022-08-16T01:46:37.101Z,100560.75
2022-08-16T01:49:43.183Z,100550.50
2022-08-16T01:53:01.641Z,100551.50
2022-08-16T01:56:24.699Z,100550.41
2022-08-16T01:59:33.008Z,100554.66
2022-08-16T02:02:42.490Z,100557.66
2022-08-16T02:05:52.037Z,100552.16
2022-08-16T02:08:58.110Z,100555.56
2022-08-16T02:12:50.735Z,100551.75
2022-08-16T02:15:43.791Z,100553.91
2022-08-16T02:18:50.699Z,100551.41
2022-08-16T02:22:09.205Z,100562.00
2022-08-16T02:25:24.928Z,100558.00
2022-08-16T02:28:51.557Z,100556.81
2022-08-16T02:32:03.471Z,100552.69
2022-08-16T02:35:10.909Z,100551.84
2022-08-16T02:38:18.534Z,100554.16
2022-08-16T02:41:25.609Z,100545.22
2022-08-16T02:44:34.081Z,100535.06
2022-08-16T02:48:00.783Z,100538.84
2022-08-16T02:51:11.342Z,100542.44
2022-08-16T02:54:18.860Z,100540.31
2022-08-16T02:57:30.935Z,100525.25
2022-08-16T03:00:38.475Z,100533.13
2022-08-16T03:04:29.896Z,100528.38
2022-08-16T03:07:16.780Z,100525.41
2022-08-16T03:10:34.387Z,100533.13
2022-08-16T03:13:41.699Z,100521.25
2022-08-16T03:16:58.873Z,100522.75
2022-08-16T03:20:13.323Z,100526.38
2022-08-16T03:23:24.205Z,100517.47
2022-08-16T03:26:30.302Z,100517.38
2022-08-16T03:29:37.993Z,100518.09
2022-08-16T03:32:51.664Z,100516.22
2022-08-16T03:36:30.772Z,100521.38
2022-08-16T03:39:30.317Z,100527.25
2022-08-16T03:43:18.750Z,100526.41
2022-08-16T03:46:04.374Z,100529.88
2022-08-16T03:49:15.494Z,100552.28
2022-08-16T03:52:31.295Z,100553.63
2022-08-16T03:55:45.416Z,100545.31
2022-08-16T03:58:52.692Z,100551.59
2022-08-16T04:01:59.197Z,100561.16
2022-08-16T04:05:11.938Z,100568.53
2022-08-16T04:08:23.794Z,100572.59
2022-08-16T04:11:36.741Z,100565.69
2022-08-16T04:14:46.402Z,100569.50
2022-08-16T04:17:52.413Z,100576.06
2022-08-16T04:20:59.479Z,100565.34
2022-08-16T04:24:08.250Z,100572.25
2022-08-16T04:27:14.430Z,100577.63
2022-08-16T04:30:31.943Z,100586.44
2022-08-16T04:33:51.187Z,100586.19
2022-08-16T04:37:02.083Z,100582.47
2022-08-16T04:40:10.258Z,100592.31
2022-08-16T04:43:26.229Z,100589.94
2022-08-16T04:47:00.731Z,100596.81
2022-08-16T04:49:59.918Z,100599.06
2022-08-16T04:53:06.646Z,100597.69
2022-08-16T04:56:13.999Z,100597.06
2022-08-16T04:59:22.259Z,100592.03
2022-08-16T05:02:42.334Z,100598.09
2022-08-16T05:05:59.120Z,100602.63
2022-08-16T05:09:08.302Z,100604.59
2022-08-16T05:12:13.576Z,100606.13
2022-08-16T05:15:28.094Z,100602.38
2022-08-16T05:18:33.724Z,100600.22
2022-08-16T05:21:39.724Z,100596.56
2022-08-16T05:24:55.208Z,100597.16
2022-08-16T05:28:01.797Z,100605.63
2022-08-16T05:31:09.766Z,100611.47
2022-08-16T05:34:19.717Z,100605.97
2022-08-16T05:37:26.931Z,100604.56
2022-08-16T05:40:59.642Z,100615.53
2022-08-16T05:44:24.134Z,100614.78
2022-08-16T05:47:30.561Z,100616.47
2022-08-16T05:50:37.834Z,100606.63
2022-08-16T05:53:47.239Z,100610.09
2022-08-16T05:56:58.008Z,100607.88
2022-08-16T06:00:09.412Z,100618.28
2022-08-16T06:03:18.835Z,100614.72
2022-08-16T06:06:35.755Z,100625.81
2022-08-16T06:09:46.462Z,100621.53
2022-08-16T06:12:56.055Z,100632.75
2022-08-16T06:16:02.208Z,100633.13
2022-08-16T06:19:08.724Z,100641.16
2022-08-16T06:22:38.883Z,100633.84
2022-08-16T06:25:52.222Z,100640.81
2022-08-16T06:29:03.122Z,100625.28
2022-08-16T06:32:27.528Z,100621.44
2022-08-16T06:35:40.352Z,100626.41
2022-08-16T06:38:52.347Z,100633.69
2022-08-16T06:42:12.529Z,100638.22
2022-08-16T06:45:29.189Z,100634.41
2022-08-16T06:48:51.635Z,100638.56
2022-08-16T06:52:02.777Z,100640.53
2022-08-16T06:55:16.567Z,100640.25
2022-08-16T06:58:31.430Z,100645.78
2022-08-16T07:01:53.655Z,100642.47
2022-08-16T07:05:01.587Z,100645.78
2022-08-16T07:08:07.733Z,100648.88
2022-08-16T07:11:20.711Z,100647.47
2022-08-16T07:14:47.766Z,100638.66
2022-08-16T07:17:56.516Z,100634.75
2022-08-16T07:21:02.523Z,100638.59
2022-08-16T07:24:11.075Z,100638.56
2022-08-16T07:27:38.512Z,100644.88
2022-08-16T07:30:49.097Z,100643.78
2022-08-16T07:34:18.958Z,100651.25
2022-08-16T07:37:24.762Z,100668.91
2022-08-16T07:41:00.988Z,100663.34
2022-08-16T07:44:16.634Z,100673.50
2022-08-16T07:47:24.678Z,100676.47
2022-08-16T07:50:55.906Z,100670.03
2022-08-16T07:54:10.178Z,100671.47
2022-08-16T07:57:24.225Z,100682.09
2022-08-16T08:00:31.783Z,100677.50
2022-08-16T08:03:39.973Z,100681.75
2022-08-16T08:06:52.103Z,100678.31
2022-08-16T08:09:58.402Z,100686.19
2022-08-16T08:13:04.368Z,100682.16
2022-08-16T08:16:18.553Z,100678.03
2022-08-16T08:19:26.555Z,100692.94
2022-08-16T08:22:34.399Z,100692.38
2022-08-16T08:25:54.555Z,100694.91
2022-08-16T08:29:01.891Z,100700.34
2022-08-16T08:32:58.572Z,100708.56
2022-08-16T08:35:41.042Z,100709.47
2022-08-16T08:38:51.143Z,100713.22
2022-08-16T08:41:56.999Z,100706.19
2022-08-16T08:45:03.954Z,100709.28
2022-08-16T08:48:09.740Z,100705.66
2022-08-16T08:51:37.266Z,100708.53
2022-08-16T08:54:47.850Z,100703.72
2022-08-16T08:57:56.346Z,100709.47
2022-08-16T09:01:13.525Z,100710.84
2022-08-16T09:04:37.306Z,100707.59
2022-08-16T09:07:54.651Z,100719.94
2022-08-16T09:11:19.169Z,100717.50
2022-08-16T09:14:25.817Z,100724.69
2022-08-16T09:17:48.789Z,100722.34
2022-08-16T09:20:59.913Z,100739.16
2022-08-16T09:24:09.844Z,100739.38
2022-08-16T09:27:17.452Z,100744.75
2022-08-16T09:30:33.471Z,100745.34
2022-08-16T09:33:44.423Z,100740.22
2022-08-16T09:36:50.306Z,100753.00
2022-08-16T09:40:01.015Z,100744.75
2022-08-16T09:43:08.943Z,100744.72
2022-08-16T09:46:48.359Z,100745.16
2022-08-16T09:49:42.678Z,100747.22
2022-08-16T09:52:48.328Z,100744.03
2022-08-16T09:55:56.873Z,100743.84
2022-08-16T09:59:08.011Z,100746.66
2022-08-16T10:02:22.963Z,100757.69
2022-08-16T10:05:37.139Z,100748.16
2022-08-16T10:08:51.266Z,100752.06
2022-08-16T10:12:26.174Z,100754.81
2022-08-16T10:15:36.541Z,100755.94
2022-08-16T10:19:02.390Z,100753.31
2022-08-16T10:22:09.978Z,100749.50
2022-08-16T10:27:17.379Z,100746.94
2022-08-16T10:28:45.648Z,100747.63
2022-08-16T10:31:57.206Z,100744.03
2022-08-16T10:35:03.754Z,100749.72
2022-08-16T10:38:09.513Z,100754.50
2022-08-16T10:41:16.032Z,100751.03
2022-08-16T10:44:21.877Z,100762.19
2022-08-16T10:47:33.183Z,100758.06
2022-08-16T10:50:43.946Z,100764.84
2022-08-16T10:53:49.723Z,100770.63
2022-08-16T10:56:57.534Z,100764.06
2022-08-16T11:00:05.309Z,100763.97
2022-08-16T11:03:45.839Z,100777.13
2022-08-16T11:07:07.909Z,100779.72
2022-08-16T11:10:20.485Z,100787.19
2022-08-16T11:17:09.582Z,100783.09
2022-08-16T11:23:57.503Z,100788.16
2022-08-16T11:27:23.495Z,100782.13
2022-08-16T11:30:38.775Z,100793.03
2022-08-16T11:33:52.792Z,100791.47
2022-08-16T11:37:01.362Z,100790.53
2022-08-16T11:40:09.712Z,100787.59
2022-08-16T11:43:17.417Z,100782.00
2022-08-16T11:46:42.965Z,100784.38
2022-08-16T11:49:48.181Z,100790.13
2022-08-16T11:52:55.458Z,100788.34
2022-08-16T11:56:01.542Z,100787.22
2022-08-16T11:59:08.523Z,100798.03
2022-08-16T12:02:31.143Z,100798.13
2022-08-16T12:05:40.371Z,100804.00
2022-08-16T12:08:48.870Z,100800.53
2022-08-16T12:11:54.717Z,100804.91
2022-08-16T12:15:00.618Z,100806.47
2022-08-16T12:18:07.709Z,100807.28
2022-08-16T12:21:14.091Z,100801.63
2022-08-16T12:24:20.505Z,100806.22
2022-08-16T12:27:26.459Z,100808.34
2022-08-16T12:30:38.736Z,100809.41
2022-08-16T12:33:45.063Z,100806.72
2022-08-16T12:36:50.284Z,100818.53
2022-08-16T12:39:57.978Z,100823.16
2022-08-16T12:43:06.217Z,100825.94
2022-08-16T12:46:12.689Z,100824.66
2022-08-16T12:49:17.823Z,100834.78
2022-08-16T12:52:33.803Z,100831.97
2022-08-16T12:55:43.767Z,100832.72
2022-08-16T12:58:51.641Z,100833.88
2022-08-16T13:01:59.429Z,100829.69
2022-08-16T13:05:08.018Z,100835.41
2022-08-16T13:08:20.049Z,100828.47
2022-08-16T13:11:35.504Z,100834.22
2022-08-16T13:14:45.175Z,100829.59
2022-08-16T13:17:51.775Z,100833.94
2022-08-16T13:21:00.816Z,100833.66
2022-08-16T13:24:06.927Z,100832.91
2022-08-16T13:27:13.505Z,100827.66
2022-08-16T13:30:35.318Z,100821.69
2022-08-16T13:33:42.915Z,100817.13
2022-08-16T13:36:50.050Z,100825.44
2022-08-16T13:40:00.353Z,100828.34
2022-08-16T13:43:07.875Z,100822.03
2022-08-16T13:46:16.974Z,100829.31
2022-08-16T13:49:23.998Z,100832.75
2022-08-16T13:52:34.085Z,100834.72
2022-08-16T13:55:44.987Z,100837.16
2022-08-16T13:59:05.609Z,100830.44
2022-08-16T14:02:12.424Z,100831.53
2022-08-16T14:05:22.101Z,100827.81
2022-08-16T14:08:27.771Z,100826.28
2022-08-16T14:11:33.438Z,100826.50
2022-08-16T14:14:41.012Z,100824.75
2022-08-16T14:18:17.464Z,100826.78
2022-08-16T14:21:13.406Z,100819.25
2022-08-16T14:24:29.808Z,100817.09
2022-08-16T14:27:38.893Z,100825.06
2022-08-16T14:30:46.070Z,100821.41
2022-08-16T14:33:52.381Z,100828.19
2022-08-16T14:36:59.622Z,100827.50
2022-08-16T14:40:06.671Z,100829.44
2022-08-16T14:43:15.606Z,100829.66
2022-08-16T14:46:22.713Z,100828.88
2022-08-16T14:49:28.143Z,100836.53
2022-08-16T14:56:00.882Z,100828.56
2022-08-16T14:59:06.980Z,100838.22
2022-08-16T15:02:33.867Z,100830.22
2022-08-16T15:05:42.407Z,100838.69
2022-08-16T15:08:48.050Z,100845.13
2022-08-16T15:11:53.649Z,100846.47
2022-08-16T15:14:59.811Z,100842.94
2022-08-16T15:18:07.519Z,100843.81
2022-08-16T15:21:17.324Z,100851.53
2022-08-16T15:24:22.978Z,100840.06
2022-08-16T15:27:33.622Z,100844.78
2022-08-16T15:30:56.839Z,100845.97
2022-08-16T15:34:13.123Z,100850.84
2022-08-16T15:37:54.444Z,100847.94
2022-08-16T15:40:57.666Z,100844.66
2022-08-16T15:44:10.387Z,100848.31
2022-08-16T15:47:16.865Z,100855.91
2022-08-16T15:50:25.065Z,100853.81
2022-08-16T15:53:31.318Z,100853.34
2022-08-16T15:56:37.000Z,100855.41
2022-08-16T15:59:52.716Z,100842.06
2022-08-16T16:03:04.331Z,100849.44
2022-08-16T16:06:16.954Z,100852.22
2022-08-16T16:09:36.582Z,100860.69
2022-08-16T16:12:51.715Z,100859.56
2022-08-16T16:16:03.002Z,100864.78
2022-08-16T16:19:09.180Z,100860.22
2022-08-16T16:22:18.544Z,100860.50
2022-08-16T16:25:26.536Z,100859.44
2022-08-16T16:28:51.284Z,100859.44
2022-08-16T16:32:00.064Z,100852.47
2022-08-16T16:35:07.247Z,100853.69
2022-08-16T16:38:15.494Z,100850.44
2022-08-16T16:41:25.375Z,100843.91
2022-08-16T16:44:36.323Z,100844.19
2022-08-16T16:47:42.720Z,100849.25
2022-08-16T16:50:50.694Z,100856.34
2022-08-16T16:53:57.811Z,100859.53
2022-08-16T16:57:04.613Z,100853.63
2022-08-16T17:00:29.844Z,100850.38
2022-08-16T17:03:38.531Z,100856.25
2022-08-16T17:06:44.963Z,100853.59
2022-08-16T17:10:06.293Z,100850.31
2022-08-16T17:13:11.870Z,100842.69
2022-08-16T17:16:18.616Z,100842.47
2022-08-16T17:19:24.619Z,100842.09
2022-08-16T17:22:37.449Z,100843.47
2022-08-16T17:25:45.422Z,100851.38
2022-08-16T17:29:02.295Z,100845.28
2022-08-16T17:32:33.914Z,100850.75
2022-08-16T17:35:40.219Z,100852.06
2022-08-16T17:38:46.575Z,100849.06
2022-08-16T17:41:54.327Z,100840.97
2022-08-16T17:45:00.031Z,100851.78
2022-08-16T17:48:05.763Z,100847.19
2022-08-16T17:51:11.159Z,100856.06
2022-08-16T17:54:20.391Z,100854.00
2022-08-16T17:57:38.835Z,100849.66
2022-08-16T18:00:45.801Z,100857.47
2022-08-16T18:04:09.081Z,100862.28
2022-08-16T18:07:15.533Z,100858.09
2022-08-16T18:10:32.651Z,100860.00
2022-08-16T18:13:42.824Z,100871.06
2022-08-16T18:16:49.186Z,100865.56
2022-08-16T18:19:54.591Z,100864.34
2022-08-16T18:23:04.490Z,100857.13
2022-08-16T18:26:10.604Z,100863.38
2022-08-16T18:29:18.093Z,100865.63
2022-08-16T18:32:24.834Z,100862.13
2022-08-16T18:35:31.255Z,100867.22
2022-08-16T18:38:38.262Z,100880.00
2022-08-16T18:41:46.961Z,100880.28
2022-08-16T18:44:54.127Z,100876.47
2022-08-16T18:47:59.486Z,100878.22
2022-08-16T18:51:10.239Z,100881.03
2022-08-16T18:54:18.849Z,100887.94
2022-08-16T18:57:24.742Z,100894.63
2022-08-16T19:00:56.746Z,100897.63
2022-08-16T19:04:00.640Z,100895.16
2022-08-16T19:07:05.898Z,100905.69
2022-08-16T19:10:11.299Z,100914.25
2022-08-16T19:13:19.957Z,100916.19
